createdAt,value
2022-10-15T00:03:16.957Z,69.78
2022-10-15T00:13:19.736Z,73.60
2022-10-15T00:23:21.881Z,86.47
2022-10-15T00:33:23.487Z,81.85
2022-10-15T00:43:42.212Z,90.95
2022-10-15T00:53:44.788Z,92.05
2022-10-15T01:03:46.701Z,93.57
2022-10-15T01:14:16.266Z,91.40
2022-10-15T01:24:39.515Z,88.28
2022-10-15T01:35:12.411Z,91.93
2022-10-15T01:45:20.212Z,82.38
2022-10-15T01:55:25.564Z,91.95
2022-10-15T02:05:32.647Z,80.63
2022-10-15T02:16:13.133Z,81.90
2022-10-15T02:26:16.324Z,77.43
2022-10-15T02:36:20.454Z,76.80
2022-10-15T02:46:26.152Z,85.75
2022-10-15T03:06:30.393Z,92.63
2022-10-15T03:16:32.190Z,95.53
2022-10-15T03:26:33.879Z,101.43
2022-10-15T03:36:35.461Z,87.97
2022-10-15T03:46:37.069Z,95.53
2022-10-15T03:56:38.854Z,100.72
2022-10-15T04:06:40.645Z,104.85
2022-10-15T04:16:43.384Z,110.22
2022-10-15T04:26:44.993Z,104.93
2022-10-15T04:36:46.599Z,99.57
2022-10-15T04:46:54.212Z,100.03
2022-10-15T04:56:55.908Z,103.28
2022-10-15T05:06:59.579Z,111.20
2022-10-15T05:17:05.220Z,117.97
2022-10-15T05:27:06.883Z,103.72
2022-10-15T05:37:08.886Z,108.70
2022-10-15T05:47:12.437Z,103.95
2022-10-15T06:07:15.999Z,87.03
2022-10-15T06:17:22.114Z,86.22
2022-10-15T06:27:25.376Z,95.30
2022-10-15T06:37:29.654Z,90.30
2022-10-15T06:47:31.849Z,67.45
2022-10-15T06:57:33.618Z,45.45
2022-10-15T07:07:35.891Z,41.42
2022-10-15T07:17:39.390Z,37.37
2022-10-15T07:27:41.166Z,37.25
2022-10-15T07:37:42.984Z,33.28
2022-10-15T07:47:47.043Z,29.48
2022-10-15T07:57:48.766Z,26.30
2022-10-15T08:07:50.346Z,29.50
2022-10-15T08:17:52.055Z,28.70
2022-10-15T08:27:54.358Z,22.77
2022-10-15T08:37:58.032Z,23.25
2022-10-15T08:48:12.869Z,21.55
2022-10-15T08:58:24.908Z,16.45
2022-10-15T09:08:59.699Z,17.05
2022-10-15T09:19:04.834Z,14.13
2022-10-15T09:29:22.530Z,17.20
2022-10-15T09:39:41.010Z,14.35
2022-10-15T09:49:50.800Z,12.23
2022-10-15T09:59:57.546Z,13.73
2022-10-15T10:10:07.244Z,14.05
2022-10-15T10:20:31.136Z,17.03
2022-10-15T10:30:53.122Z,11.68
2022-10-15T10:41:15.986Z,10.70
2022-10-15T10:51:21.931Z,10.30
2022-10-15T11:01:24.033Z,9.35
2022-10-15T11:11:36.197Z,9.13
2022-10-15T11:22:15.448Z,8.38
2022-10-15T11:32:47.995Z,14.60
2022-10-15T11:43:02.737Z,6.45
2022-10-15T11:53:28.315Z,14.63
2022-10-15T12:03:35.761Z,9.02
2022-10-15T12:14:13.489Z,11.15
2022-10-15T12:24:48.454Z,10.73
2022-10-15T12:34:58.680Z,7.55
2022-10-15T12:45:21.956Z,9.88
2022-10-15T12:55:36.046Z,5.95
2022-10-15T13:05:37.859Z,11.77
2022-10-15T13:15:40.597Z,6.30
2022-10-15T13:25:45.224Z,12.52
2022-10-15T13:35:46.947Z,14.98
2022-10-15T13:55:57.475Z,16.20
2022-10-15T14:06:20.315Z,8.65
2022-10-15T14:16:25.111Z,12.63
2022-10-15T14:26:27.766Z,8.32
2022-10-15T14:36:41.222Z,9.73
2022-10-15T14:46:53.089Z,9.63
2022-10-15T14:56:54.650Z,6.78
2022-10-15T15:06:58.302Z,11.30
2022-10-15T15:17:02.924Z,20.45
2022-10-15T15:27:04.644Z,14.10
2022-10-15T15:37:15.020Z,20.70
2022-10-15T15:47:23.652Z,9.32
2022-10-15T15:57:27.034Z,10.45
2022-10-15T16:07:29.798Z,18.67
2022-10-15T16:17:31.534Z,8.55
2022-10-15T16:27:34.613Z,10.23
2022-10-15T16:37:36.395Z,9.70
2022-10-15T16:47:38.240Z,12.13
2022-10-15T16:57:39.817Z,25.10
2022-10-15T17:07:41.797Z,14.43
2022-10-15T17:17:43.789Z,14.10
2022-10-15T17:27:46.995Z,11.15
2022-10-15T17:37:48.652Z,12.18
2022-10-15T17:47:53.735Z,12.73
2022-10-15T17:57:58.530Z,15.48
2022-10-15T18:08:00.751Z,12.65
2022-10-15T18:18:05.082Z,12.13
2022-10-15T18:28:08.515Z,19.63
2022-10-15T18:38:12.474Z,26.27
2022-10-15T18:48:14.344Z,18.20
2022-10-15T18:58:15.994Z,13.13
2022-10-15T19:08:21.377Z,16.83
2022-10-15T19:18:25.218Z,14.00
2022-10-15T19:28:28.103Z,14.35
2022-10-15T19:38:33.884Z,14.30
2022-10-15T19:48:37.242Z,14.65
2022-10-15T19:58:39.059Z,14.52
2022-10-15T20:08:40.859Z,20.93
2022-10-15T20:18:42.902Z,19.53
2022-10-15T20:28:46.314Z,23.87
2022-10-15T20:38:50.297Z,18.88
2022-10-15T20:48:52.723Z,20.85
2022-10-15T20:58:56.623Z,17.55
2022-10-15T21:08:58.576Z,17.70
2022-10-15T21:19:00.304Z,14.00
2022-10-15T21:29:01.996Z,17.43
2022-10-15T21:39:07.758Z,16.43
2022-10-15T21:49:23.073Z,18.52
2022-10-15T21:59:24.705Z,19.80
2022-10-15T22:09:27.459Z,16.03
2022-10-15T22:19:29.145Z,15.95
2022-10-15T22:29:34.512Z,20.30
2022-10-15T22:39:36.953Z,11.10
2022-10-15T22:49:38.571Z,12.40
2022-10-15T22:59:43.692Z,15.33
2022-10-15T23:09:46.328Z,11.80
2022-10-15T23:19:49.001Z,12.70
2022-10-15T23:29:56.940Z,14.90
2022-10-15T23:40:10.896Z,18.67
2022-10-15T23:50:12.521Z,10.02
